Terminal Aerodrome Forecast
Issued by NWS

Home | Current Version | Previous Version | Text Only | Print | Product List | Glossary On
Versions: 1 2 3 4 5 6 7 8 9 10 11 12
000
FTUS45 KRIW 012300
TAFBPI
TAF
KBPI 012327Z 0200/0224 35013KT P6SM SCT040 BKN060
     FM020200 35008KT P6SM SCT060
     FM020600 33005KT P6SM SKC
     FM021800 30016G26KT P6SM FEW050=

USA.gov is the U.S. government's official web portal to all federal, state and local government web resources and services.